MET'MAP v2.0
soon released !

Expected late october,
this new version will be
more efficient, smarter,
and hosted on a brand new
server x3 powerfull...
...and still free !


Not compatible ?
Try the mobile version !

LOG IN : | Subscribe | Disclaimer | Who is Orbifly ? |
ICAO code :
Legend : VFR Marginal VFR IFR Intensive IFR Very Intensive IFR
Visi :
Ceiling :
>= 8 km
>= 3000ft
5 to 8 km
1000 to 3000 ft
1500m to 5 km
500 to 1000 ft
800 to 1500m
200 to 500 ft
< 800m
< 200 ft

METAR - LEBG Burgos - 02 Jun 2020 14:01 UTC
Data Sources :     NOAA   


- Airport Elevation : 2945 ft
- IATA code : RGS
- No reported NOTAMs.


LEBG - Burgos

Latest METAR recorded : 2015/08/11 08:00 LEBG 110800Z 01009KT CAVOK 21/11 Q1015
TAF TAF LEBG
Valid from the 02 at 12:00 until the 02 at 21:00 UTC


021100Z 0212/0221 05008KT 9999 SCT040
TEMPO 0212/0218 FEW040CB
PROB40
TEMPO 0212/0218 VRB15G30KT 4000 TSRA SCT035CB
PROB30 0212/0218 2000 TSGR SCT035CB

Source NOAA


MET'MAP, your aeronautical weather chart ! - Copyright ORBIFLY December 2007

Programming & Development : Alexandra Zaïnal
Co-Developer : Marc-Olivier Méhu
Technical & hardware support : Manuel Goepfert
Concept & Financing : Baudouin d'Aumeries